sensor_id;sensor_type;location;lat;lon;timestamp;P1;durP1;ratioP1;P2;durP2;ratioP2
63378;SDS011;49509;54.996;73.270;2022-07-12T00:02:12;12.40;;;11.20;;
63378;SDS011;49509;54.996;73.270;2022-07-12T00:04:39;8.80;;;8.80;;
63378;SDS011;49509;54.996;73.270;2022-07-12T00:07:05;11.40;;;10.80;;
63378;SDS011;49509;54.996;73.270;2022-07-12T00:09:32;8.40;;;8.40;;
63378;SDS011;49509;54.996;73.270;2022-07-12T00:12:09;8.80;;;8.80;;
63378;SDS011;49509;54.996;73.270;2022-07-12T00:14:45;8.00;;;8.00;;
63378;SDS011;49509;54.996;73.270;2022-07-12T00:17:12;7.60;;;7.00;;
63378;SDS011;49509;54.996;73.270;2022-07-12T00:19:38;6.40;;;6.40;;
63378;SDS011;49509;54.996;73.270;2022-07-12T00:22:10;7.20;;;6.80;;
63378;SDS011;49509;54.996;73.270;2022-07-12T00:24:36;8.80;;;8.00;;
63378;SDS011;49509;54.996;73.270;2022-07-12T00:27:02;9.80;;;7.20;;
63378;SDS011;49509;54.996;73.270;2022-07-12T00:29:29;8.00;;;8.00;;
63378;SDS011;49509;54.996;73.270;2022-07-12T00:32:00;10.60;;;8.60;;
63378;SDS011;49509;54.996;73.270;2022-07-12T00:34:26;7.60;;;7.40;;
63378;SDS011;49509;54.996;73.270;2022-07-12T00:36:52;11.60;;;11.60;;
63378;SDS011;49509;54.996;73.270;2022-07-12T00:39:19;9.40;;;9.40;;
63378;SDS011;49509;54.996;73.270;2022-07-12T00:41:47;7.20;;;7.20;;
63378;SDS011;49509;54.996;73.270;2022-07-12T00:44:14;9.60;;;8.00;;
63378;SDS011;49509;54.996;73.270;2022-07-12T00:46:41;8.00;;;8.00;;
63378;SDS011;49509;54.996;73.270;2022-07-12T00:49:09;6.40;;;6.40;;
63378;SDS011;49509;54.996;73.270;2022-07-12T00:51:35;9.40;;;9.40;;
63378;SDS011;49509;54.996;73.270;2022-07-12T00:54:02;7.80;;;7.80;;
63378;SDS011;49509;54.996;73.270;2022-07-12T00:56:29;8.40;;;8.00;;
63378;SDS011;49509;54.996;73.270;2022-07-12T00:58:56;9.60;;;9.60;;
63378;SDS011;49509;54.996;73.270;2022-07-12T01:01:22;8.20;;;8.20;;
63378;SDS011;49509;54.996;73.270;2022-07-12T01:03:52;6.00;;;6.00;;
63378;SDS011;49509;54.996;73.270;2022-07-12T01:06:21;9.00;;;7.80;;
63378;SDS011;49509;54.996;73.270;2022-07-12T01:08:48;10.20;;;10.20;;
63378;SDS011;49509;54.996;73.270;2022-07-12T01:11:15;8.00;;;8.00;;
63378;SDS011;49509;54.996;73.270;2022-07-12T01:13:41;9.00;;;9.00;;
63378;SDS011;49509;54.996;73.270;2022-07-12T01:16:08;8.00;;;8.00;;
63378;SDS011;49509;54.996;73.270;2022-07-12T01:18:35;6.00;;;6.00;;
63378;SDS011;49509;54.996;73.270;2022-07-12T01:21:03;8.20;;;8.20;;
63378;SDS011;49509;54.996;73.270;2022-07-12T01:23:29;7.00;;;7.00;;
63378;SDS011;49509;54.996;73.270;2022-07-12T01:25:55;7.00;;;7.00;;
63378;SDS011;49509;54.996;73.270;2022-07-12T01:28:22;9.20;;;7.40;;
63378;SDS011;49509;54.996;73.270;2022-07-12T01:30:49;9.00;;;9.00;;
63378;SDS011;49509;54.996;73.270;2022-07-12T01:33:24;6.00;;;5.80;;
63378;SDS011;49509;54.996;73.270;2022-07-12T01:35:52;6.60;;;6.60;;
63378;SDS011;49509;54.996;73.270;2022-07-12T01:38:18;7.00;;;7.00;;
63378;SDS011;49509;54.996;73.270;2022-07-12T01:40:44;5.80;;;5.80;;
63378;SDS011;49509;54.996;73.270;2022-07-12T01:43:11;8.60;;;8.60;;
63378;SDS011;49509;54.996;73.270;2022-07-12T01:45:37;7.80;;;7.80;;
63378;SDS011;49509;54.996;73.270;2022-07-12T01:48:04;6.00;;;6.00;;
63378;SDS011;49509;54.996;73.270;2022-07-12T01:50:30;8.00;;;8.00;;
63378;SDS011;49509;54.996;73.270;2022-07-12T01:52:56;8.40;;;7.40;;
63378;SDS011;49509;54.996;73.270;2022-07-12T01:55:23;8.00;;;8.00;;
63378;SDS011;49509;54.996;73.270;2022-07-12T01:57:50;7.80;;;7.80;;
63378;SDS011;49509;54.996;73.270;2022-07-12T02:00:17;7.80;;;7.80;;
63378;SDS011;49509;54.996;73.270;2022-07-12T02:02:45;6.40;;;6.40;;
63378;SDS011;49509;54.996;73.270;2022-07-12T02:05:17;6.80;;;6.80;;
63378;SDS011;49509;54.996;73.270;2022-07-12T02:07:43;6.00;;;6.00;;
63378;SDS011;49509;54.996;73.270;2022-07-12T02:10:09;9.60;;;9.00;;
63378;SDS011;49509;54.996;73.270;2022-07-12T02:12:36;8.80;;;8.20;;
63378;SDS011;49509;54.996;73.270;2022-07-12T02:15:06;10.00;;;9.60;;
63378;SDS011;49509;54.996;73.270;2022-07-12T02:17:33;10.20;;;9.20;;
63378;SDS011;49509;54.996;73.270;2022-07-12T02:20:00;6.60;;;6.60;;
63378;SDS011;49509;54.996;73.270;2022-07-12T02:22:26;7.00;;;7.00;;
63378;SDS011;49509;54.996;73.270;2022-07-12T02:24:52;7.40;;;7.40;;
63378;SDS011;49509;54.996;73.270;2022-07-12T02:27:19;6.20;;;6.20;;
63378;SDS011;49509;54.996;73.270;2022-07-12T02:29:45;6.60;;;6.20;;
63378;SDS011;49509;54.996;73.270;2022-07-12T02:32:12;7.00;;;5.60;;
63378;SDS011;49509;54.996;73.270;2022-07-12T02:34:49;5.60;;;5.60;;
63378;SDS011;49509;54.996;73.270;2022-07-12T02:37:16;6.80;;;6.80;;
63378;SDS011;49509;54.996;73.270;2022-07-12T02:39:42;6.00;;;6.00;;
63378;SDS011;49509;54.996;73.270;2022-07-12T02:42:08;7.40;;;7.40;;
63378;SDS011;49509;54.996;73.270;2022-07-12T02:44:35;6.80;;;6.00;;
63378;SDS011;49509;54.996;73.270;2022-07-12T02:47:01;4.60;;;4.60;;
63378;SDS011;49509;54.996;73.270;2022-07-12T02:49:36;7.00;;;5.60;;
63378;SDS011;49509;54.996;73.270;2022-07-12T02:52:06;3.00;;;3.00;;
63378;SDS011;49509;54.996;73.270;2022-07-12T02:54:32;6.00;;;6.00;;
63378;SDS011;49509;54.996;73.270;2022-07-12T02:57:09;5.20;;;4.20;;
63378;SDS011;49509;54.996;73.270;2022-07-12T02:59:35;5.00;;;5.00;;
63378;SDS011;49509;54.996;73.270;2022-07-12T03:02:01;5.00;;;5.00;;
63378;SDS011;49509;54.996;73.270;2022-07-12T03:04:28;5.80;;;4.80;;
63378;SDS011;49509;54.996;73.270;2022-07-12T03:06:57;5.00;;;5.00;;
63378;SDS011;49509;54.996;73.270;2022-07-12T03:09:24;5.00;;;5.00;;
63378;SDS011;49509;54.996;73.270;2022-07-12T03:11:50;9.80;;;7.40;;
63378;SDS011;49509;54.996;73.270;2022-07-12T03:14:16;6.80;;;6.80;;
63378;SDS011;49509;54.996;73.270;2022-07-12T03:16:42;7.80;;;7.80;;
63378;SDS011;49509;54.996;73.270;2022-07-12T03:19:09;7.20;;;6.80;;
63378;SDS011;49509;54.996;73.270;2022-07-12T03:21:41;6.00;;;6.00;;
63378;SDS011;49509;54.996;73.270;2022-07-12T03:24:08;5.80;;;5.80;;
63378;SDS011;49509;54.996;73.270;2022-07-12T03:26:34;6.00;;;6.00;;
63378;SDS011;49509;54.996;73.270;2022-07-12T03:29:08;6.00;;;6.00;;
63378;SDS011;49509;54.996;73.270;2022-07-12T03:31:39;7.00;;;7.00;;
63378;SDS011;49509;54.996;73.270;2022-07-12T03:34:05;6.40;;;6.00;;
63378;SDS011;49509;54.996;73.270;2022-07-12T03:36:32;7.60;;;7.60;;
63378;SDS011;49509;54.996;73.270;2022-07-12T03:38:58;6.00;;;6.00;;
63378;SDS011;49509;54.996;73.270;2022-07-12T03:41:24;6.00;;;6.00;;
63378;SDS011;49509;54.996;73.270;2022-07-12T03:43:51;6.00;;;6.00;;
63378;SDS011;49509;54.996;73.270;2022-07-12T03:46:17;5.00;;;5.00;;
63378;SDS011;49509;54.996;73.270;2022-07-12T03:48:44;7.00;;;7.00;;
63378;SDS011;49509;54.996;73.270;2022-07-12T03:51:10;9.60;;;8.00;;
63378;SDS011;49509;54.996;73.270;2022-07-12T03:53:42;12.40;;;9.60;;
63378;SDS011;49509;54.996;73.270;2022-07-12T03:56:08;9.80;;;9.80;;
63378;SDS011;49509;54.996;73.270;2022-07-12T03:58:40;9.00;;;9.00;;
63378;SDS011;49509;54.996;73.270;2022-07-12T04:01:06;10.60;;;10.60;;
63378;SDS011;49509;54.996;73.270;2022-07-12T04:03:33;14.20;;;14.20;;
63378;SDS011;49509;54.996;73.270;2022-07-12T04:05:59;16.40;;;16.40;;
63378;SDS011;49509;54.996;73.270;2022-07-12T04:08:35;13.60;;;13.60;;
63378;SDS011;49509;54.996;73.270;2022-07-12T04:11:02;14.20;;;13.80;;
63378;SDS011;49509;54.996;73.270;2022-07-12T04:13:31;13.60;;;12.80;;
63378;SDS011;49509;54.996;73.270;2022-07-12T04:16:07;17.00;;;17.00;;
63378;SDS011;49509;54.996;73.270;2022-07-12T04:18:34;17.20;;;16.60;;
63378;SDS011;49509;54.996;73.270;2022-07-12T04:21:00;20.40;;;16.60;;
63378;SDS011;49509;54.996;73.270;2022-07-12T04:23:26;17.80;;;15.60;;
63378;SDS011;49509;54.996;73.270;2022-07-12T04:26:02;18.00;;;17.80;;
63378;SDS011;49509;54.996;73.270;2022-07-12T04:28:28;14.80;;;14.00;;
63378;SDS011;49509;54.996;73.270;2022-07-12T04:30:55;16.40;;;15.40;;
63378;SDS011;49509;54.996;73.270;2022-07-12T04:33:21;14.20;;;13.60;;
63378;SDS011;49509;54.996;73.270;2022-07-12T04:35:48;13.40;;;13.40;;
63378;SDS011;49509;54.996;73.270;2022-07-12T04:38:14;13.80;;;13.80;;
63378;SDS011;49509;54.996;73.270;2022-07-12T04:40:40;12.80;;;12.80;;
63378;SDS011;49509;54.996;73.270;2022-07-12T04:43:06;13.80;;;12.80;;
63378;SDS011;49509;54.996;73.270;2022-07-12T04:45:36;12.40;;;12.20;;
63378;SDS011;49509;54.996;73.270;2022-07-12T04:48:02;8.00;;;8.00;;
63378;SDS011;49509;54.996;73.270;2022-07-12T04:50:34;6.60;;;6.60;;
63378;SDS011;49509;54.996;73.270;2022-07-12T04:53:00;10.00;;;10.00;;
63378;SDS011;49509;54.996;73.270;2022-07-12T04:55:26;6.20;;;6.20;;
63378;SDS011;49509;54.996;73.270;2022-07-12T04:57:53;7.00;;;7.00;;
63378;SDS011;49509;54.996;73.270;2022-07-12T05:00:20;8.00;;;7.80;;
63378;SDS011;49509;54.996;73.270;2022-07-12T05:02:49;3.60;;;3.60;;
63378;SDS011;49509;54.996;73.270;2022-07-12T05:05:16;8.00;;;8.00;;
63378;SDS011;49509;54.996;73.270;2022-07-12T05:07:42;6.80;;;6.80;;
63378;SDS011;49509;54.996;73.270;2022-07-12T05:10:08;6.00;;;6.00;;
63378;SDS011;49509;54.996;73.270;2022-07-12T05:12:35;7.40;;;7.40;;
63378;SDS011;49509;54.996;73.270;2022-07-12T05:15:02;6.40;;;6.40;;
63378;SDS011;49509;54.996;73.270;2022-07-12T05:17:28;4.80;;;4.80;;
63378;SDS011;49509;54.996;73.270;2022-07-12T05:19:54;6.00;;;6.00;;
63378;SDS011;49509;54.996;73.270;2022-07-12T05:22:21;7.20;;;7.20;;
63378;SDS011;49509;54.996;73.270;2022-07-12T05:24:48;6.00;;;6.00;;
63378;SDS011;49509;54.996;73.270;2022-07-12T05:27:14;8.20;;;8.20;;
63378;SDS011;49509;54.996;73.270;2022-07-12T05:29:41;4.00;;;4.00;;
63378;SDS011;49509;54.996;73.270;2022-07-12T05:32:08;8.60;;;8.60;;
63378;SDS011;49509;54.996;73.270;2022-07-12T05:34:34;6.80;;;6.80;;
63378;SDS011;49509;54.996;73.270;2022-07-12T05:37:00;7.00;;;7.00;;
63378;SDS011;49509;54.996;73.270;2022-07-12T05:39:36;7.20;;;7.20;;
63378;SDS011;49509;54.996;73.270;2022-07-12T05:42:03;6.40;;;6.40;;
63378;SDS011;49509;54.996;73.270;2022-07-12T05:44:32;7.80;;;7.80;;
63378;SDS011;49509;54.996;73.270;2022-07-12T05:46:59;7.00;;;7.00;;
63378;SDS011;49509;54.996;73.270;2022-07-12T05:49:25;8.40;;;8.00;;
63378;SDS011;49509;54.996;73.270;2022-07-12T05:51:51;9.40;;;9.40;;
63378;SDS011;49509;54.996;73.270;2022-07-12T05:54:37;10.00;;;9.00;;
63378;SDS011;49509;54.996;73.270;2022-07-12T05:57:03;11.80;;;11.80;;
63378;SDS011;49509;54.996;73.270;2022-07-12T05:59:29;9.00;;;9.00;;
63378;SDS011;49509;54.996;73.270;2022-07-12T06:01:57;9.80;;;9.80;;
63378;SDS011;49509;54.996;73.270;2022-07-12T06:04:23;9.80;;;9.00;;
63378;SDS011;49509;54.996;73.270;2022-07-12T06:06:49;9.60;;;8.20;;
63378;SDS011;49509;54.996;73.270;2022-07-12T06:09:16;9.20;;;9.20;;
63378;SDS011;49509;54.996;73.270;2022-07-12T06:11:47;10.20;;;10.20;;
63378;SDS011;49509;54.996;73.270;2022-07-12T06:14:14;7.40;;;7.40;;
63378;SDS011;49509;54.996;73.270;2022-07-12T06:16:41;7.80;;;7.00;;
63378;SDS011;49509;54.996;73.270;2022-07-12T06:19:07;8.40;;;8.40;;
63378;SDS011;49509;54.996;73.270;2022-07-12T06:21:34;9.00;;;9.00;;
63378;SDS011;49509;54.996;73.270;2022-07-12T06:24:00;9.00;;;8.80;;
63378;SDS011;49509;54.996;73.270;2022-07-12T06:26:26;7.00;;;7.00;;
63378;SDS011;49509;54.996;73.270;2022-07-12T06:28:53;7.80;;;7.80;;
63378;SDS011;49509;54.996;73.270;2022-07-12T06:31:20;7.60;;;7.60;;
63378;SDS011;49509;54.996;73.270;2022-07-12T06:33:46;8.20;;;8.20;;
63378;SDS011;49509;54.996;73.270;2022-07-12T06:36:13;11.00;;;11.00;;
63378;SDS011;49509;54.996;73.270;2022-07-12T06:38:39;9.20;;;8.00;;
63378;SDS011;49509;54.996;73.270;2022-07-12T06:41:06;8.60;;;8.60;;
63378;SDS011;49509;54.996;73.270;2022-07-12T06:43:32;8.20;;;8.20;;
63378;SDS011;49509;54.996;73.270;2022-07-12T06:45:58;8.00;;;8.00;;
63378;SDS011;49509;54.996;73.270;2022-07-12T06:48:30;10.80;;;8.80;;
63378;SDS011;49509;54.996;73.270;2022-07-12T06:51:06;10.00;;;10.00;;
63378;SDS011;49509;54.996;73.270;2022-07-12T06:53:36;8.00;;;8.00;;
63378;SDS011;49509;54.996;73.270;2022-07-12T06:56:02;9.00;;;9.00;;
63378;SDS011;49509;54.996;73.270;2022-07-12T06:58:29;10.20;;;9.80;;
63378;SDS011;49509;54.996;73.270;2022-07-12T07:00:55;6.20;;;6.20;;
63378;SDS011;49509;54.996;73.270;2022-07-12T07:03:22;7.00;;;7.00;;
63378;SDS011;49509;54.996;73.270;2022-07-12T07:05:48;9.00;;;9.00;;
63378;SDS011;49509;54.996;73.270;2022-07-12T07:08:14;9.40;;;9.40;;
63378;SDS011;49509;54.996;73.270;2022-07-12T07:10:41;10.00;;;10.00;;
63378;SDS011;49509;54.996;73.270;2022-07-12T07:13:08;7.40;;;6.80;;
63378;SDS011;49509;54.996;73.270;2022-07-12T07:15:38;9.80;;;9.80;;
63378;SDS011;49509;54.996;73.270;2022-07-12T07:18:05;9.40;;;8.40;;
63378;SDS011;49509;54.996;73.270;2022-07-12T07:20:31;10.00;;;9.80;;
63378;SDS011;49509;54.996;73.270;2022-07-12T07:23:07;9.20;;;8.40;;
63378;SDS011;49509;54.996;73.270;2022-07-12T07:25:36;9.80;;;9.00;;
63378;SDS011;49509;54.996;73.270;2022-07-12T07:28:02;9.40;;;9.40;;
63378;SDS011;49509;54.996;73.270;2022-07-12T07:30:29;8.20;;;8.20;;
63378;SDS011;49509;54.996;73.270;2022-07-12T07:33:13;9.00;;;9.00;;
63378;SDS011;49509;54.996;73.270;2022-07-12T07:35:39;8.80;;;8.60;;
63378;SDS011;49509;54.996;73.270;2022-07-12T07:38:06;9.60;;;7.60;;
63378;SDS011;49509;54.996;73.270;2022-07-12T07:40:32;9.40;;;9.40;;
63378;SDS011;49509;54.996;73.270;2022-07-12T07:42:58;11.60;;;9.40;;
63378;SDS011;49509;54.996;73.270;2022-07-12T07:45:24;7.20;;;7.20;;
63378;SDS011;49509;54.996;73.270;2022-07-12T07:47:51;8.20;;;8.20;;
63378;SDS011;49509;54.996;73.270;2022-07-12T07:50:17;6.00;;;6.00;;
63378;SDS011;49509;54.996;73.270;2022-07-12T07:52:44;9.60;;;9.00;;
63378;SDS011;49509;54.996;73.270;2022-07-12T07:55:11;9.00;;;9.00;;
63378;SDS011;49509;54.996;73.270;2022-07-12T07:57:38;8.00;;;8.00;;
63378;SDS011;49509;54.996;73.270;2022-07-12T08:00:04;11.40;;;11.40;;
63378;SDS011;49509;54.996;73.270;2022-07-12T08:02:37;11.40;;;10.60;;
63378;SDS011;49509;54.996;73.270;2022-07-12T08:05:04;8.00;;;8.00;;
63378;SDS011;49509;54.996;73.270;2022-07-12T08:07:35;7.60;;;7.60;;
63378;SDS011;49509;54.996;73.270;2022-07-12T08:10:06;8.00;;;8.00;;
63378;SDS011;49509;54.996;73.270;2022-07-12T08:12:33;8.80;;;8.80;;
63378;SDS011;49509;54.996;73.270;2022-07-12T08:15:00;9.20;;;9.20;;
63378;SDS011;49509;54.996;73.270;2022-07-12T08:17:27;7.80;;;7.80;;
63378;SDS011;49509;54.996;73.270;2022-07-12T08:19:53;15.20;;;14.20;;
63378;SDS011;49509;54.996;73.270;2022-07-12T08:22:19;10.00;;;9.80;;
63378;SDS011;49509;54.996;73.270;2022-07-12T08:24:50;10.60;;;10.60;;
63378;SDS011;49509;54.996;73.270;2022-07-12T08:27:16;8.40;;;8.20;;
63378;SDS011;49509;54.996;73.270;2022-07-12T08:29:42;8.60;;;8.60;;
63378;SDS011;49509;54.996;73.270;2022-07-12T08:32:08;13.60;;;13.00;;
63378;SDS011;49509;54.996;73.270;2022-07-12T08:34:39;8.00;;;8.00;;
63378;SDS011;49509;54.996;73.270;2022-07-12T08:37:13;10.40;;;10.40;;
63378;SDS011;49509;54.996;73.270;2022-07-12T08:39:39;9.80;;;8.80;;
63378;SDS011;49509;54.996;73.270;2022-07-12T08:42:06;10.00;;;8.40;;
63378;SDS011;49509;54.996;73.270;2022-07-12T08:44:33;9.80;;;8.80;;
63378;SDS011;49509;54.996;73.270;2022-07-12T08:47:03;7.40;;;7.40;;
63378;SDS011;49509;54.996;73.270;2022-07-12T08:49:34;9.80;;;9.80;;
63378;SDS011;49509;54.996;73.270;2022-07-12T08:52:17;9.80;;;9.80;;
63378;SDS011;49509;54.996;73.270;2022-07-12T08:54:47;9.80;;;8.80;;
63378;SDS011;49509;54.996;73.270;2022-07-12T08:57:30;10.00;;;10.00;;
63378;SDS011;49509;54.996;73.270;2022-07-12T08:59:59;9.80;;;9.00;;
63378;SDS011;49509;54.996;73.270;2022-07-12T09:02:26;9.40;;;9.40;;
63378;SDS011;49509;54.996;73.270;2022-07-12T09:05:08;7.80;;;7.80;;
63378;SDS011;49509;54.996;73.270;2022-07-12T09:07:35;9.40;;;9.40;;
63378;SDS011;49509;54.996;73.270;2022-07-12T09:10:06;11.20;;;11.20;;
63378;SDS011;49509;54.996;73.270;2022-07-12T09:12:38;10.00;;;10.00;;
63378;SDS011;49509;54.996;73.270;2022-07-12T09:17:55;11.00;;;11.00;;
63378;SDS011;49509;54.996;73.270;2022-07-12T09:20:25;9.00;;;8.20;;
63378;SDS011;49509;54.996;73.270;2022-07-12T09:22:55;11.20;;;10.20;;
63378;SDS011;49509;54.996;73.270;2022-07-12T09:25:22;11.00;;;10.40;;
63378;SDS011;49509;54.996;73.270;2022-07-12T09:27:55;8.80;;;8.80;;
63378;SDS011;49509;54.996;73.270;2022-07-12T09:30:28;8.40;;;7.80;;
63378;SDS011;49509;54.996;73.270;2022-07-12T09:33:01;13.00;;;11.80;;
63378;SDS011;49509;54.996;73.270;2022-07-12T09:36:07;10.80;;;10.80;;
63378;SDS011;49509;54.996;73.270;2022-07-12T09:40:59;9.40;;;9.40;;
63378;SDS011;49509;54.996;73.270;2022-07-12T09:43:30;10.00;;;9.20;;
63378;SDS011;49509;54.996;73.270;2022-07-12T09:46:02;9.00;;;9.00;;
63378;SDS011;49509;54.996;73.270;2022-07-12T09:48:28;10.00;;;10.00;;
63378;SDS011;49509;54.996;73.270;2022-07-12T09:50:56;12.20;;;12.20;;
63378;SDS011;49509;54.996;73.270;2022-07-12T09:53:30;10.20;;;9.20;;
63378;SDS011;49509;54.996;73.270;2022-07-12T09:56:07;12.40;;;11.80;;
63378;SDS011;49509;54.996;73.270;2022-07-12T10:01:17;12.00;;;11.00;;
63378;SDS011;49509;54.996;73.270;2022-07-12T10:03:54;11.00;;;11.00;;
63378;SDS011;49509;54.996;73.270;2022-07-12T10:08:48;9.00;;;9.00;;
63378;SDS011;49509;54.996;73.270;2022-07-12T10:11:15;10.40;;;10.40;;
63378;SDS011;49509;54.996;73.270;2022-07-12T10:13:41;8.00;;;8.00;;
63378;SDS011;49509;54.996;73.270;2022-07-12T10:16:09;12.00;;;12.00;;
63378;SDS011;49509;54.996;73.270;2022-07-12T10:18:36;10.80;;;10.80;;
63378;SDS011;49509;54.996;73.270;2022-07-12T10:21:16;9.00;;;9.00;;
63378;SDS011;49509;54.996;73.270;2022-07-12T10:23:43;12.40;;;12.40;;
63378;SDS011;49509;54.996;73.270;2022-07-12T10:28:56;12.00;;;12.00;;
63378;SDS011;49509;54.996;73.270;2022-07-12T10:31:29;11.80;;;11.80;;
63378;SDS011;49509;54.996;73.270;2022-07-12T10:39:29;13.80;;;12.40;;
63378;SDS011;49509;54.996;73.270;2022-07-12T10:44:38;11.00;;;11.00;;
63378;SDS011;49509;54.996;73.270;2022-07-12T10:47:09;10.80;;;10.80;;
63378;SDS011;49509;54.996;73.270;2022-07-12T10:49:49;9.60;;;9.20;;
63378;SDS011;49509;54.996;73.270;2022-07-12T10:52:26;10.40;;;10.20;;
63378;SDS011;49509;54.996;73.270;2022-07-12T10:57:42;11.20;;;11.20;;
63378;SDS011;49509;54.996;73.270;2022-07-12T11:00:17;9.60;;;9.60;;
63378;SDS011;49509;54.996;73.270;2022-07-12T11:02:44;12.60;;;12.60;;
63378;SDS011;49509;54.996;73.270;2022-07-12T11:05:26;17.60;;;16.20;;
63378;SDS011;49509;54.996;73.270;2022-07-12T11:07:57;12.40;;;11.00;;
63378;SDS011;49509;54.996;73.270;2022-07-12T11:10:23;13.20;;;13.20;;
63378;SDS011;49509;54.996;73.270;2022-07-12T11:12:50;13.40;;;13.40;;
63378;SDS011;49509;54.996;73.270;2022-07-12T11:15:16;10.20;;;10.20;;
63378;SDS011;49509;54.996;73.270;2022-07-12T11:17:42;10.60;;;10.60;;
63378;SDS011;49509;54.996;73.270;2022-07-12T11:20:12;13.40;;;13.40;;
63378;SDS011;49509;54.996;73.270;2022-07-12T11:22:40;14.80;;;14.80;;
63378;SDS011;49509;54.996;73.270;2022-07-12T11:25:10;13.40;;;13.40;;
63378;SDS011;49509;54.996;73.270;2022-07-12T11:27:41;11.80;;;10.60;;
63378;SDS011;49509;54.996;73.270;2022-07-12T11:30:08;16.40;;;12.80;;
63378;SDS011;49509;54.996;73.270;2022-07-12T11:35:01;11.00;;;11.00;;
63378;SDS011;49509;54.996;73.270;2022-07-12T11:37:27;13.00;;;13.00;;
63378;SDS011;49509;54.996;73.270;2022-07-12T11:39:54;15.40;;;13.20;;
63378;SDS011;49509;54.996;73.270;2022-07-12T11:42:20;9.00;;;9.00;;
63378;SDS011;49509;54.996;73.270;2022-07-12T11:44:48;15.20;;;14.60;;
63378;SDS011;49509;54.996;73.270;2022-07-12T11:47:16;12.60;;;12.00;;
63378;SDS011;49509;54.996;73.270;2022-07-12T11:49:47;11.00;;;11.00;;
63378;SDS011;49509;54.996;73.270;2022-07-12T11:52:22;16.40;;;13.60;;
63378;SDS011;49509;54.996;73.270;2022-07-12T11:54:54;12.80;;;12.80;;
63378;SDS011;49509;54.996;73.270;2022-07-12T11:57:29;12.40;;;12.40;;
63378;SDS011;49509;54.996;73.270;2022-07-12T12:00:12;13.00;;;13.00;;
63378;SDS011;49509;54.996;73.270;2022-07-12T12:02:38;14.60;;;14.60;;
63378;SDS011;49509;54.996;73.270;2022-07-12T12:05:11;10.20;;;10.20;;
63378;SDS011;49509;54.996;73.270;2022-07-12T12:07:38;14.40;;;13.60;;
63378;SDS011;49509;54.996;73.270;2022-07-12T12:10:08;13.00;;;13.00;;
63378;SDS011;49509;54.996;73.270;2022-07-12T12:12:36;15.60;;;14.60;;
63378;SDS011;49509;54.996;73.270;2022-07-12T12:15:06;12.60;;;12.40;;
63378;SDS011;49509;54.996;73.270;2022-07-12T12:20:22;14.20;;;13.40;;
63378;SDS011;49509;54.996;73.270;2022-07-12T12:22:50;15.60;;;15.60;;
63378;SDS011;49509;54.996;73.270;2022-07-12T12:25:16;10.60;;;10.60;;
63378;SDS011;49509;54.996;73.270;2022-07-12T12:30:21;11.80;;;11.80;;
63378;SDS011;49509;54.996;73.270;2022-07-12T12:33:04;13.60;;;12.00;;
63378;SDS011;49509;54.996;73.270;2022-07-12T12:35:37;17.40;;;16.00;;
63378;SDS011;49509;54.996;73.270;2022-07-12T12:38:10;13.00;;;12.60;;
63378;SDS011;49509;54.996;73.270;2022-07-12T12:40:51;15.40;;;15.40;;
63378;SDS011;49509;54.996;73.270;2022-07-12T12:43:18;14.40;;;14.40;;
63378;SDS011;49509;54.996;73.270;2022-07-12T12:45:48;15.40;;;14.80;;
63378;SDS011;49509;54.996;73.270;2022-07-12T12:48:18;15.20;;;15.20;;
63378;SDS011;49509;54.996;73.270;2022-07-12T12:50:50;13.60;;;13.60;;
63378;SDS011;49509;54.996;73.270;2022-07-12T12:53:18;13.80;;;13.80;;
63378;SDS011;49509;54.996;73.270;2022-07-12T12:55:45;15.00;;;15.00;;
63378;SDS011;49509;54.996;73.270;2022-07-12T12:58:23;15.00;;;15.00;;
63378;SDS011;49509;54.996;73.270;2022-07-12T13:00:50;15.80;;;15.80;;
63378;SDS011;49509;54.996;73.270;2022-07-12T13:03:28;15.00;;;15.00;;
63378;SDS011;49509;54.996;73.270;2022-07-12T13:05:54;17.20;;;17.20;;
63378;SDS011;49509;54.996;73.270;2022-07-12T13:08:20;13.80;;;13.80;;
63378;SDS011;49509;54.996;73.270;2022-07-12T13:10:47;15.80;;;15.80;;
63378;SDS011;49509;54.996;73.270;2022-07-12T13:13:13;12.40;;;12.40;;
63378;SDS011;49509;54.996;73.270;2022-07-12T13:15:40;16.00;;;16.00;;
63378;SDS011;49509;54.996;73.270;2022-07-12T13:18:06;21.80;;;20.00;;
63378;SDS011;49509;54.996;73.270;2022-07-12T13:20:33;14.40;;;14.40;;
63378;SDS011;49509;54.996;73.270;2022-07-12T13:22:59;16.60;;;13.80;;
63378;SDS011;49509;54.996;73.270;2022-07-12T13:25:26;15.60;;;15.60;;
63378;SDS011;49509;54.996;73.270;2022-07-12T13:27:52;16.20;;;16.20;;
63378;SDS011;49509;54.996;73.270;2022-07-12T13:30:19;14.60;;;14.60;;
63378;SDS011;49509;54.996;73.270;2022-07-12T13:32:46;16.00;;;14.80;;
63378;SDS011;49509;54.996;73.270;2022-07-12T13:35:13;17.00;;;17.00;;
63378;SDS011;49509;54.996;73.270;2022-07-12T13:37:40;17.60;;;17.60;;
63378;SDS011;49509;54.996;73.270;2022-07-12T13:40:18;14.80;;;14.80;;
63378;SDS011;49509;54.996;73.270;2022-07-12T13:42:47;15.00;;;14.00;;
63378;SDS011;49509;54.996;73.270;2022-07-12T13:45:18;15.60;;;15.60;;
63378;SDS011;49509;54.996;73.270;2022-07-12T13:47:49;15.80;;;15.80;;
63378;SDS011;49509;54.996;73.270;2022-07-12T13:50:16;12.80;;;12.80;;
63378;SDS011;49509;54.996;73.270;2022-07-12T13:52:44;13.80;;;13.80;;
63378;SDS011;49509;54.996;73.270;2022-07-12T13:55:21;14.80;;;14.80;;
63378;SDS011;49509;54.996;73.270;2022-07-12T13:57:47;13.20;;;13.20;;
63378;SDS011;49509;54.996;73.270;2022-07-12T14:00:14;13.40;;;13.40;;
63378;SDS011;49509;54.996;73.270;2022-07-12T14:02:42;12.40;;;12.40;;
63378;SDS011;49509;54.996;73.270;2022-07-12T14:05:09;14.60;;;14.60;;
63378;SDS011;49509;54.996;73.270;2022-07-12T14:07:37;14.00;;;14.00;;
63378;SDS011;49509;54.996;73.270;2022-07-12T14:10:04;13.40;;;13.40;;
63378;SDS011;49509;54.996;73.270;2022-07-12T14:12:31;14.00;;;14.00;;
63378;SDS011;49509;54.996;73.270;2022-07-12T14:14:58;11.00;;;11.00;;
63378;SDS011;49509;54.996;73.270;2022-07-12T14:17:44;14.00;;;14.00;;
63378;SDS011;49509;54.996;73.270;2022-07-12T14:20:11;13.20;;;13.20;;
63378;SDS011;49509;54.996;73.270;2022-07-12T14:22:40;11.60;;;11.60;;
63378;SDS011;49509;54.996;73.270;2022-07-12T14:25:08;10.80;;;10.80;;
63378;SDS011;49509;54.996;73.270;2022-07-12T14:27:34;12.20;;;12.20;;
63378;SDS011;49509;54.996;73.270;2022-07-12T14:30:02;12.40;;;12.40;;
63378;SDS011;49509;54.996;73.270;2022-07-12T14:32:29;11.00;;;11.00;;
63378;SDS011;49509;54.996;73.270;2022-07-12T14:34:55;12.80;;;12.00;;
63378;SDS011;49509;54.996;73.270;2022-07-12T14:37:21;14.00;;;13.00;;
63378;SDS011;49509;54.996;73.270;2022-07-12T14:39:47;9.60;;;9.60;;
63378;SDS011;49509;54.996;73.270;2022-07-12T14:42:14;12.60;;;11.60;;
63378;SDS011;49509;54.996;73.270;2022-07-12T14:44:40;6.40;;;5.60;;
63378;SDS011;49509;54.996;73.270;2022-07-12T14:47:08;11.20;;;11.20;;
63378;SDS011;49509;54.996;73.270;2022-07-12T14:49:39;11.00;;;10.00;;
63378;SDS011;49509;54.996;73.270;2022-07-12T14:52:05;10.60;;;10.60;;
63378;SDS011;49509;54.996;73.270;2022-07-12T14:54:32;12.60;;;11.40;;
63378;SDS011;49509;54.996;73.270;2022-07-12T14:57:02;9.20;;;9.20;;
63378;SDS011;49509;54.996;73.270;2022-07-12T14:59:29;10.60;;;9.40;;
63378;SDS011;49509;54.996;73.270;2022-07-12T15:02:02;11.00;;;9.60;;
63378;SDS011;49509;54.996;73.270;2022-07-12T15:04:29;10.00;;;10.00;;